sensor_id;sensor_type;location;lat;lon;timestamp;P1;durP1;ratioP1;P2;durP2;ratioP2
30472;SDS011;17263;48.160;11.452;2024-02-26T00:00:00;5.00;;;3.40;;
30472;SDS011;17263;48.160;11.452;2024-02-26T00:02:26;4.93;;;4.00;;
30472;SDS011;17263;48.160;11.452;2024-02-26T00:04:52;5.27;;;4.07;;
30472;SDS011;17263;48.160;11.452;2024-02-26T00:07:18;5.03;;;3.93;;
30472;SDS011;17263;48.160;11.452;2024-02-26T00:09:44;6.23;;;4.03;;
30472;SDS011;17263;48.160;11.452;2024-02-26T00:12:10;4.30;;;3.90;;
30472;SDS011;17263;48.160;11.452;2024-02-26T00:14:36;5.00;;;3.90;;
30472;SDS011;17263;48.160;11.452;2024-02-26T00:17:02;5.20;;;4.00;;
30472;SDS011;17263;48.160;11.452;2024-02-26T00:19:28;5.53;;;3.40;;
30472;SDS011;17263;48.160;11.452;2024-02-26T00:21:54;4.83;;;3.90;;
30472;SDS011;17263;48.160;11.452;2024-02-26T00:24:21;6.00;;;3.73;;
30472;SDS011;17263;48.160;11.452;2024-02-26T00:26:47;5.83;;;3.97;;
30472;SDS011;17263;48.160;11.452;2024-02-26T00:29:18;4.53;;;3.87;;
30472;SDS011;17263;48.160;11.452;2024-02-26T00:31:45;4.33;;;3.57;;
30472;SDS011;17263;48.160;11.452;2024-02-26T00:34:11;5.00;;;3.47;;
30472;SDS011;17263;48.160;11.452;2024-02-26T00:36:37;5.07;;;3.83;;
30472;SDS011;17263;48.160;11.452;2024-02-26T00:39:03;4.63;;;3.60;;
30472;SDS011;17263;48.160;11.452;2024-02-26T00:41:29;5.50;;;3.90;;
30472;SDS011;17263;48.160;11.452;2024-02-26T00:43:55;5.37;;;4.33;;
30472;SDS011;17263;48.160;11.452;2024-02-26T00:46:21;4.50;;;4.10;;
30472;SDS011;17263;48.160;11.452;2024-02-26T00:48:47;4.33;;;3.83;;
30472;SDS011;17263;48.160;11.452;2024-02-26T00:51:13;5.00;;;4.07;;
30472;SDS011;17263;48.160;11.452;2024-02-26T00:53:40;4.13;;;3.47;;
30472;SDS011;17263;48.160;11.452;2024-02-26T00:56:06;4.53;;;3.53;;
30472;SDS011;17263;48.160;11.452;2024-02-26T00:58:32;5.07;;;3.97;;
30472;SDS011;17263;48.160;11.452;2024-02-26T01:00:58;6.83;;;3.70;;
30472;SDS011;17263;48.160;11.452;2024-02-26T01:03:24;4.33;;;3.60;;
30472;SDS011;17263;48.160;11.452;2024-02-26T01:05:51;4.27;;;3.67;;
30472;SDS011;17263;48.160;11.452;2024-02-26T01:08:17;4.33;;;3.40;;
30472;SDS011;17263;48.160;11.452;2024-02-26T01:10:43;6.17;;;3.33;;
30472;SDS011;17263;48.160;11.452;2024-02-26T01:13:09;3.87;;;3.30;;
30472;SDS011;17263;48.160;11.452;2024-02-26T01:15:35;3.13;;;2.83;;
30472;SDS011;17263;48.160;11.452;2024-02-26T01:18:01;4.53;;;3.40;;
30472;SDS011;17263;48.160;11.452;2024-02-26T01:20:27;4.87;;;3.10;;
30472;SDS011;17263;48.160;11.452;2024-02-26T01:22:53;3.57;;;2.80;;
30472;SDS011;17263;48.160;11.452;2024-02-26T01:25:19;3.90;;;3.07;;
30472;SDS011;17263;48.160;11.452;2024-02-26T01:27:45;3.30;;;3.00;;
30472;SDS011;17263;48.160;11.452;2024-02-26T01:30:11;3.93;;;2.90;;
30472;SDS011;17263;48.160;11.452;2024-02-26T01:32:37;3.40;;;2.90;;
30472;SDS011;17263;48.160;11.452;2024-02-26T01:35:03;5.33;;;3.10;;
30472;SDS011;17263;48.160;11.452;2024-02-26T01:37:30;3.50;;;2.70;;
30472;SDS011;17263;48.160;11.452;2024-02-26T01:39:56;3.83;;;2.83;;
30472;SDS011;17263;48.160;11.452;2024-02-26T01:42:22;3.83;;;2.70;;
30472;SDS011;17263;48.160;11.452;2024-02-26T01:44:48;2.63;;;2.40;;
30472;SDS011;17263;48.160;11.452;2024-02-26T01:47:14;3.10;;;2.80;;
30472;SDS011;17263;48.160;11.452;2024-02-26T01:49:40;3.23;;;2.80;;
30472;SDS011;17263;48.160;11.452;2024-02-26T01:52:07;2.70;;;2.50;;
30472;SDS011;17263;48.160;11.452;2024-02-26T01:54:35;3.17;;;2.70;;
30472;SDS011;17263;48.160;11.452;2024-02-26T01:57:04;2.87;;;2.33;;
30472;SDS011;17263;48.160;11.452;2024-02-26T01:59:31;3.03;;;2.53;;
30472;SDS011;17263;48.160;11.452;2024-02-26T02:01:58;3.70;;;2.57;;
30472;SDS011;17263;48.160;11.452;2024-02-26T02:04:27;2.67;;;2.47;;
30472;SDS011;17263;48.160;11.452;2024-02-26T02:06:53;3.40;;;3.10;;
30472;SDS011;17263;48.160;11.452;2024-02-26T02:09:19;3.50;;;2.73;;
30472;SDS011;17263;48.160;11.452;2024-02-26T02:11:47;3.57;;;2.80;;
30472;SDS011;17263;48.160;11.452;2024-02-26T02:14:14;4.20;;;2.67;;
30472;SDS011;17263;48.160;11.452;2024-02-26T02:16:40;2.97;;;2.67;;
30472;SDS011;17263;48.160;11.452;2024-02-26T02:19:06;3.43;;;2.63;;
30472;SDS011;17263;48.160;11.452;2024-02-26T02:21:32;4.33;;;2.50;;
30472;SDS011;17263;48.160;11.452;2024-02-26T02:23:58;2.90;;;2.60;;
30472;SDS011;17263;48.160;11.452;2024-02-26T02:26:24;3.60;;;2.63;;
30472;SDS011;17263;48.160;11.452;2024-02-26T02:28:50;2.90;;;2.60;;
30472;SDS011;17263;48.160;11.452;2024-02-26T02:31:16;3.07;;;2.70;;
30472;SDS011;17263;48.160;11.452;2024-02-26T02:33:43;3.93;;;2.77;;
30472;SDS011;17263;48.160;11.452;2024-02-26T02:36:09;2.60;;;2.40;;
30472;SDS011;17263;48.160;11.452;2024-02-26T02:38:37;3.60;;;2.80;;
30472;SDS011;17263;48.160;11.452;2024-02-26T02:41:03;3.30;;;2.93;;
30472;SDS011;17263;48.160;11.452;2024-02-26T02:43:30;3.30;;;2.70;;
30472;SDS011;17263;48.160;11.452;2024-02-26T02:45:56;3.40;;;2.73;;
30472;SDS011;17263;48.160;11.452;2024-02-26T02:48:22;2.53;;;2.33;;
30472;SDS011;17263;48.160;11.452;2024-02-26T02:50:48;3.47;;;2.93;;
30472;SDS011;17263;48.160;11.452;2024-02-26T02:53:14;4.30;;;2.40;;
30472;SDS011;17263;48.160;11.452;2024-02-26T02:55:41;3.40;;;2.63;;
30472;SDS011;17263;48.160;11.452;2024-02-26T02:58:07;4.43;;;2.70;;
30472;SDS011;17263;48.160;11.452;2024-02-26T03:00:33;4.80;;;3.17;;
30472;SDS011;17263;48.160;11.452;2024-02-26T03:02:59;3.43;;;2.70;;
30472;SDS011;17263;48.160;11.452;2024-02-26T03:05:26;3.90;;;2.67;;
30472;SDS011;17263;48.160;11.452;2024-02-26T03:07:52;4.13;;;2.50;;
30472;SDS011;17263;48.160;11.452;2024-02-26T03:10:18;4.27;;;2.70;;
30472;SDS011;17263;48.160;11.452;2024-02-26T03:12:45;3.27;;;2.73;;
30472;SDS011;17263;48.160;11.452;2024-02-26T03:15:11;2.87;;;2.50;;
30472;SDS011;17263;48.160;11.452;2024-02-26T03:17:37;3.17;;;2.53;;
30472;SDS011;17263;48.160;11.452;2024-02-26T03:20:03;3.00;;;2.70;;
30472;SDS011;17263;48.160;11.452;2024-02-26T03:22:30;5.07;;;3.03;;
30472;SDS011;17263;48.160;11.452;2024-02-26T03:24:57;3.33;;;2.70;;
30472;SDS011;17263;48.160;11.452;2024-02-26T03:27:23;2.73;;;2.50;;
30472;SDS011;17263;48.160;11.452;2024-02-26T03:29:49;2.80;;;2.30;;
30472;SDS011;17263;48.160;11.452;2024-02-26T03:32:15;3.27;;;2.47;;
30472;SDS011;17263;48.160;11.452;2024-02-26T03:34:41;4.30;;;2.70;;
30472;SDS011;17263;48.160;11.452;2024-02-26T03:37:07;2.93;;;2.63;;
30472;SDS011;17263;48.160;11.452;2024-02-26T03:39:35;2.93;;;2.50;;
30472;SDS011;17263;48.160;11.452;2024-02-26T03:42:02;2.80;;;2.30;;
30472;SDS011;17263;48.160;11.452;2024-02-26T03:44:28;2.90;;;2.60;;
30472;SDS011;17263;48.160;11.452;2024-02-26T03:46:54;2.77;;;2.30;;
30472;SDS011;17263;48.160;11.452;2024-02-26T03:49:21;3.60;;;2.60;;
30472;SDS011;17263;48.160;11.452;2024-02-26T03:51:47;2.57;;;2.37;;
30472;SDS011;17263;48.160;11.452;2024-02-26T03:54:14;3.03;;;2.60;;
30472;SDS011;17263;48.160;11.452;2024-02-26T03:56:40;3.10;;;2.60;;
30472;SDS011;17263;48.160;11.452;2024-02-26T03:59:06;2.33;;;2.13;;
30472;SDS011;17263;48.160;11.452;2024-02-26T04:01:32;2.60;;;2.40;;
30472;SDS011;17263;48.160;11.452;2024-02-26T04:03:58;2.80;;;2.50;;
30472;SDS011;17263;48.160;11.452;2024-02-26T04:06:24;3.10;;;2.57;;
30472;SDS011;17263;48.160;11.452;2024-02-26T04:08:50;2.93;;;2.50;;
30472;SDS011;17263;48.160;11.452;2024-02-26T04:11:16;2.90;;;2.60;;
30472;SDS011;17263;48.160;11.452;2024-02-26T04:13:44;2.67;;;2.40;;
30472;SDS011;17263;48.160;11.452;2024-02-26T04:16:15;3.60;;;2.70;;
30472;SDS011;17263;48.160;11.452;2024-02-26T04:18:42;3.53;;;2.57;;
30472;SDS011;17263;48.160;11.452;2024-02-26T04:21:08;4.40;;;2.67;;
30472;SDS011;17263;48.160;11.452;2024-02-26T04:23:34;4.40;;;2.73;;
30472;SDS011;17263;48.160;11.452;2024-02-26T04:26:00;3.10;;;2.40;;
30472;SDS011;17263;48.160;11.452;2024-02-26T04:28:26;2.97;;;2.37;;
30472;SDS011;17263;48.160;11.452;2024-02-26T04:30:54;2.83;;;2.53;;
30472;SDS011;17263;48.160;11.452;2024-02-26T04:33:21;2.77;;;2.57;;
30472;SDS011;17263;48.160;11.452;2024-02-26T04:35:47;2.40;;;2.20;;
30472;SDS011;17263;48.160;11.452;2024-02-26T04:38:13;3.07;;;2.77;;
30472;SDS011;17263;48.160;11.452;2024-02-26T04:40:39;4.40;;;3.40;;
30472;SDS011;17263;48.160;11.452;2024-02-26T04:43:05;3.90;;;2.97;;
30472;SDS011;17263;48.160;11.452;2024-02-26T04:45:31;5.73;;;3.40;;
30472;SDS011;17263;48.160;11.452;2024-02-26T04:47:57;8.13;;;4.80;;
30472;SDS011;17263;48.160;11.452;2024-02-26T04:50:23;7.63;;;4.83;;
30472;SDS011;17263;48.160;11.452;2024-02-26T04:52:49;5.27;;;3.60;;
30472;SDS011;17263;48.160;11.452;2024-02-26T04:55:15;4.77;;;3.67;;
30472;SDS011;17263;48.160;11.452;2024-02-26T04:57:41;4.70;;;3.43;;
30472;SDS011;17263;48.160;11.452;2024-02-26T05:00:08;5.00;;;3.40;;
30472;SDS011;17263;48.160;11.452;2024-02-26T05:02:35;5.07;;;3.60;;
30472;SDS011;17263;48.160;11.452;2024-02-26T05:05:04;5.30;;;4.20;;
30472;SDS011;17263;48.160;11.452;2024-02-26T05:07:31;6.20;;;4.40;;
30472;SDS011;17263;48.160;11.452;2024-02-26T05:09:57;6.00;;;4.53;;
30472;SDS011;17263;48.160;11.452;2024-02-26T05:12:23;5.50;;;3.97;;
30472;SDS011;17263;48.160;11.452;2024-02-26T05:14:49;5.40;;;3.63;;
30472;SDS011;17263;48.160;11.452;2024-02-26T05:17:15;4.97;;;3.97;;
30472;SDS011;17263;48.160;11.452;2024-02-26T05:19:41;4.93;;;3.17;;
30472;SDS011;17263;48.160;11.452;2024-02-26T05:22:07;4.00;;;2.60;;
30472;SDS011;17263;48.160;11.452;2024-02-26T05:24:33;3.23;;;2.73;;
30472;SDS011;17263;48.160;11.452;2024-02-26T05:27:02;5.27;;;2.93;;
30472;SDS011;17263;48.160;11.452;2024-02-26T05:29:29;3.87;;;2.60;;
30472;SDS011;17263;48.160;11.452;2024-02-26T05:31:55;3.33;;;2.60;;
30472;SDS011;17263;48.160;11.452;2024-02-26T05:34:21;3.33;;;2.70;;
30472;SDS011;17263;48.160;11.452;2024-02-26T05:36:47;3.47;;;2.80;;
30472;SDS011;17263;48.160;11.452;2024-02-26T05:39:13;3.30;;;2.73;;
30472;SDS011;17263;48.160;11.452;2024-02-26T05:41:39;3.63;;;2.63;;
30472;SDS011;17263;48.160;11.452;2024-02-26T05:44:07;3.87;;;2.90;;
30472;SDS011;17263;48.160;11.452;2024-02-26T05:46:35;3.13;;;2.50;;
30472;SDS011;17263;48.160;11.452;2024-02-26T05:49:01;4.47;;;3.00;;
30472;SDS011;17263;48.160;11.452;2024-02-26T05:51:28;6.37;;;3.10;;
30472;SDS011;17263;48.160;11.452;2024-02-26T05:53:54;3.67;;;2.93;;
30472;SDS011;17263;48.160;11.452;2024-02-26T05:56:21;3.27;;;2.83;;
30472;SDS011;17263;48.160;11.452;2024-02-26T05:58:47;3.13;;;2.80;;
30472;SDS011;17263;48.160;11.452;2024-02-26T06:01:15;4.20;;;2.60;;
30472;SDS011;17263;48.160;11.452;2024-02-26T06:03:42;3.97;;;3.23;;
30472;SDS011;17263;48.160;11.452;2024-02-26T06:06:09;3.80;;;2.43;;
30472;SDS011;17263;48.160;11.452;2024-02-26T06:08:36;4.40;;;2.80;;
30472;SDS011;17263;48.160;11.452;2024-02-26T06:11:05;3.47;;;2.63;;
30472;SDS011;17263;48.160;11.452;2024-02-26T06:13:32;7.03;;;3.37;;
30472;SDS011;17263;48.160;11.452;2024-02-26T06:15:59;6.20;;;3.20;;
30472;SDS011;17263;48.160;11.452;2024-02-26T06:18:25;3.20;;;2.77;;
30472;SDS011;17263;48.160;11.452;2024-02-26T06:20:51;3.43;;;2.43;;
30472;SDS011;17263;48.160;11.452;2024-02-26T06:23:17;4.03;;;2.73;;
30472;SDS011;17263;48.160;11.452;2024-02-26T06:25:43;8.07;;;3.20;;
30472;SDS011;17263;48.160;11.452;2024-02-26T06:28:09;6.43;;;3.10;;
30472;SDS011;17263;48.160;11.452;2024-02-26T06:30:35;3.73;;;2.90;;
30472;SDS011;17263;48.160;11.452;2024-02-26T06:33:01;7.23;;;3.60;;
30472;SDS011;17263;48.160;11.452;2024-02-26T06:35:28;6.40;;;3.80;;
30472;SDS011;17263;48.160;11.452;2024-02-26T06:37:54;10.83;;;3.53;;
30472;SDS011;17263;48.160;11.452;2024-02-26T06:40:20;7.07;;;3.40;;
30472;SDS011;17263;48.160;11.452;2024-02-26T06:42:46;10.83;;;3.30;;
30472;SDS011;17263;48.160;11.452;2024-02-26T06:45:12;6.43;;;3.80;;
30472;SDS011;17263;48.160;11.452;2024-02-26T06:47:38;5.60;;;4.23;;
30472;SDS011;17263;48.160;11.452;2024-02-26T06:50:04;8.77;;;4.50;;
30472;SDS011;17263;48.160;11.452;2024-02-26T06:52:31;5.30;;;3.93;;
30472;SDS011;17263;48.160;11.452;2024-02-26T06:54:57;7.77;;;3.97;;
30472;SDS011;17263;48.160;11.452;2024-02-26T06:57:23;9.13;;;4.23;;
30472;SDS011;17263;48.160;11.452;2024-02-26T06:59:49;5.93;;;3.87;;
30472;SDS011;17263;48.160;11.452;2024-02-26T07:02:15;10.53;;;4.40;;
30472;SDS011;17263;48.160;11.452;2024-02-26T07:04:42;7.37;;;4.20;;
30472;SDS011;17263;48.160;11.452;2024-02-26T07:07:08;11.93;;;4.60;;
30472;SDS011;17263;48.160;11.452;2024-02-26T07:09:34;11.37;;;4.50;;
30472;SDS011;17263;48.160;11.452;2024-02-26T07:12:00;8.53;;;6.27;;
30472;SDS011;17263;48.160;11.452;2024-02-26T07:14:26;12.77;;;4.80;;
30472;SDS011;17263;48.160;11.452;2024-02-26T07:16:52;9.10;;;3.97;;
30472;SDS011;17263;48.160;11.452;2024-02-26T07:19:18;9.43;;;4.47;;
30472;SDS011;17263;48.160;11.452;2024-02-26T07:21:44;8.00;;;4.00;;
30472;SDS011;17263;48.160;11.452;2024-02-26T07:24:10;8.60;;;3.80;;
30472;SDS011;17263;48.160;11.452;2024-02-26T07:26:36;6.40;;;3.97;;
30472;SDS011;17263;48.160;11.452;2024-02-26T07:29:02;11.80;;;4.43;;
30472;SDS011;17263;48.160;11.452;2024-02-26T07:31:29;12.37;;;4.30;;
30472;SDS011;17263;48.160;11.452;2024-02-26T07:33:55;4.40;;;3.63;;
30472;SDS011;17263;48.160;11.452;2024-02-26T07:36:21;8.97;;;4.33;;
30472;SDS011;17263;48.160;11.452;2024-02-26T07:38:47;9.43;;;4.60;;
30472;SDS011;17263;48.160;11.452;2024-02-26T07:41:13;8.87;;;3.97;;
30472;SDS011;17263;48.160;11.452;2024-02-26T07:43:39;13.13;;;4.63;;
30472;SDS011;17263;48.160;11.452;2024-02-26T07:46:06;8.10;;;4.40;;
30472;SDS011;17263;48.160;11.452;2024-02-26T07:48:32;10.33;;;4.77;;
30472;SDS011;17263;48.160;11.452;2024-02-26T07:50:59;6.33;;;4.30;;
30472;SDS011;17263;48.160;11.452;2024-02-26T07:53:25;7.07;;;4.67;;
30472;SDS011;17263;48.160;11.452;2024-02-26T07:55:51;13.93;;;5.03;;
30472;SDS011;17263;48.160;11.452;2024-02-26T07:58:17;6.20;;;4.97;;
30472;SDS011;17263;48.160;11.452;2024-02-26T08:00:43;7.73;;;4.90;;
30472;SDS011;17263;48.160;11.452;2024-02-26T08:03:11;11.83;;;5.60;;
30472;SDS011;17263;48.160;11.452;2024-02-26T08:05:38;9.83;;;5.03;;
30472;SDS011;17263;48.160;11.452;2024-02-26T08:08:06;13.30;;;5.30;;
30472;SDS011;17263;48.160;11.452;2024-02-26T08:10:32;5.63;;;4.60;;
30472;SDS011;17263;48.160;11.452;2024-02-26T08:12:58;8.67;;;4.97;;
30472;SDS011;17263;48.160;11.452;2024-02-26T08:15:30;9.73;;;4.43;;
30472;SDS011;17263;48.160;11.452;2024-02-26T08:18:03;9.03;;;5.07;;
30472;SDS011;17263;48.160;11.452;2024-02-26T08:20:29;12.63;;;5.10;;
30472;SDS011;17263;48.160;11.452;2024-02-26T08:22:56;10.47;;;4.90;;
30472;SDS011;17263;48.160;11.452;2024-02-26T08:25:22;13.93;;;5.00;;
30472;SDS011;17263;48.160;11.452;2024-02-26T08:27:49;10.37;;;5.00;;
30472;SDS011;17263;48.160;11.452;2024-02-26T08:30:16;10.93;;;5.17;;
30472;SDS011;17263;48.160;11.452;2024-02-26T08:32:43;7.60;;;5.57;;
30472;SDS011;17263;48.160;11.452;2024-02-26T08:35:11;9.37;;;5.83;;
30472;SDS011;17263;48.160;11.452;2024-02-26T08:37:37;13.90;;;5.90;;
30472;SDS011;17263;48.160;11.452;2024-02-26T08:40:03;9.03;;;5.70;;
30472;SDS011;17263;48.160;11.452;2024-02-26T08:42:29;10.53;;;5.60;;
30472;SDS011;17263;48.160;11.452;2024-02-26T08:44:55;9.63;;;5.73;;
30472;SDS011;17263;48.160;11.452;2024-02-26T08:47:21;9.20;;;5.83;;
30472;SDS011;17263;48.160;11.452;2024-02-26T08:49:48;7.43;;;5.87;;
30472;SDS011;17263;48.160;11.452;2024-02-26T08:52:14;7.20;;;5.53;;
30472;SDS011;17263;48.160;11.452;2024-02-26T08:54:41;9.70;;;5.60;;
30472;SDS011;17263;48.160;11.452;2024-02-26T08:57:07;10.73;;;5.20;;
30472;SDS011;17263;48.160;11.452;2024-02-26T08:59:33;10.43;;;5.77;;
30472;SDS011;17263;48.160;11.452;2024-02-26T09:01:59;8.87;;;5.20;;
30472;SDS011;17263;48.160;11.452;2024-02-26T09:04:25;13.33;;;5.97;;
30472;SDS011;17263;48.160;11.452;2024-02-26T09:06:52;10.20;;;5.30;;
30472;SDS011;17263;48.160;11.452;2024-02-26T09:09:19;12.97;;;5.10;;
30472;SDS011;17263;48.160;11.452;2024-02-26T09:11:47;9.07;;;5.60;;
30472;SDS011;17263;48.160;11.452;2024-02-26T09:14:17;11.67;;;5.97;;
30472;SDS011;17263;48.160;11.452;2024-02-26T09:16:43;8.77;;;6.17;;
30472;SDS011;17263;48.160;11.452;2024-02-26T09:19:09;13.13;;;6.57;;
30472;SDS011;17263;48.160;11.452;2024-02-26T09:21:35;11.63;;;6.20;;
30472;SDS011;17263;48.160;11.452;2024-02-26T09:24:01;20.03;;;7.23;;
30472;SDS011;17263;48.160;11.452;2024-02-26T09:26:27;8.40;;;6.17;;
30472;SDS011;17263;48.160;11.452;2024-02-26T09:28:53;7.80;;;5.50;;
30472;SDS011;17263;48.160;11.452;2024-02-26T09:31:19;12.70;;;6.63;;
30472;SDS011;17263;48.160;11.452;2024-02-26T09:33:45;13.50;;;6.43;;
30472;SDS011;17263;48.160;11.452;2024-02-26T09:36:11;13.80;;;7.00;;
30472;SDS011;17263;48.160;11.452;2024-02-26T09:38:37;13.40;;;5.40;;
30472;SDS011;17263;48.160;11.452;2024-02-26T09:41:05;15.80;;;5.67;;
30472;SDS011;17263;48.160;11.452;2024-02-26T09:43:35;10.33;;;5.27;;
30472;SDS011;17263;48.160;11.452;2024-02-26T09:46:01;14.73;;;5.80;;
30472;SDS011;17263;48.160;11.452;2024-02-26T09:48:29;9.93;;;4.93;;
30472;SDS011;17263;48.160;11.452;2024-02-26T09:50:55;13.43;;;5.07;;
30472;SDS011;17263;48.160;11.452;2024-02-26T09:53:21;10.07;;;4.53;;
30472;SDS011;17263;48.160;11.452;2024-02-26T09:55:48;12.40;;;4.53;;
30472;SDS011;17263;48.160;11.452;2024-02-26T09:58:14;5.40;;;3.23;;
30472;SDS011;17263;48.160;11.452;2024-02-26T10:00:46;8.00;;;3.20;;
30472;SDS011;17263;48.160;11.452;2024-02-26T10:03:18;8.57;;;3.07;;
30472;SDS011;17263;48.160;11.452;2024-02-26T10:05:51;4.77;;;2.70;;
30472;SDS011;17263;48.160;11.452;2024-02-26T10:08:20;7.40;;;3.10;;
30472;SDS011;17263;48.160;11.452;2024-02-26T10:10:48;7.27;;;3.40;;
30472;SDS011;17263;48.160;11.452;2024-02-26T10:13:15;5.73;;;3.10;;
30472;SDS011;17263;48.160;11.452;2024-02-26T10:15:41;7.10;;;3.37;;
30472;SDS011;17263;48.160;11.452;2024-02-26T10:18:07;6.33;;;2.80;;
30472;SDS011;17263;48.160;11.452;2024-02-26T10:20:33;5.73;;;2.67;;
30472;SDS011;17263;48.160;11.452;2024-02-26T10:23:02;4.67;;;2.40;;
30472;SDS011;17263;48.160;11.452;2024-02-26T10:25:30;6.97;;;2.60;;
30472;SDS011;17263;48.160;11.452;2024-02-26T10:27:59;3.80;;;2.50;;
30472;SDS011;17263;48.160;11.452;2024-02-26T10:30:29;3.83;;;2.60;;
30472;SDS011;17263;48.160;11.452;2024-02-26T10:32:56;5.37;;;2.60;;
30472;SDS011;17263;48.160;11.452;2024-02-26T10:35:23;6.20;;;2.20;;
30472;SDS011;17263;48.160;11.452;2024-02-26T10:37:49;4.37;;;1.80;;
30472;SDS011;17263;48.160;11.452;2024-02-26T10:40:16;7.07;;;2.20;;
30472;SDS011;17263;48.160;11.452;2024-02-26T10:42:42;2.97;;;1.90;;
30472;SDS011;17263;48.160;11.452;2024-02-26T10:45:10;5.73;;;1.87;;
30472;SDS011;17263;48.160;11.452;2024-02-26T10:47:36;6.50;;;2.23;;
30472;SDS011;17263;48.160;11.452;2024-02-26T10:50:05;3.73;;;1.80;;
30472;SDS011;17263;48.160;11.452;2024-02-26T10:52:32;4.63;;;1.70;;
30472;SDS011;17263;48.160;11.452;2024-02-26T10:55:03;3.73;;;1.60;;
30472;SDS011;17263;48.160;11.452;2024-02-26T10:57:39;1.50;;;1.30;;
30472;SDS011;17263;48.160;11.452;2024-02-26T11:00:06;2.50;;;1.83;;
30472;SDS011;17263;48.160;11.452;2024-02-26T11:02:36;1.53;;;1.30;;
30472;SDS011;17263;48.160;11.452;2024-02-26T11:05:02;3.23;;;1.40;;
30472;SDS011;17263;48.160;11.452;2024-02-26T11:07:29;2.93;;;1.50;;
30472;SDS011;17263;48.160;11.452;2024-02-26T11:09:58;2.27;;;1.43;;
30472;SDS011;17263;48.160;11.452;2024-02-26T11:12:25;4.13;;;1.90;;
30472;SDS011;17263;48.160;11.452;2024-02-26T11:14:54;1.90;;;1.50;;
30472;SDS011;17263;48.160;11.452;2024-02-26T11:17:22;2.47;;;1.60;;
30472;SDS011;17263;48.160;11.452;2024-02-26T11:19:55;5.30;;;1.60;;
30472;SDS011;17263;48.160;11.452;2024-02-26T11:22:24;2.23;;;1.60;;
30472;SDS011;17263;48.160;11.452;2024-02-26T11:24:52;5.10;;;1.43;;
30472;SDS011;17263;48.160;11.452;2024-02-26T11:27:21;2.07;;;1.70;;
30472;SDS011;17263;48.160;11.452;2024-02-26T11:29:52;5.00;;;1.40;;
30472;SDS011;17263;48.160;11.452;2024-02-26T11:32:19;1.90;;;1.47;;
30472;SDS011;17263;48.160;11.452;2024-02-26T11:34:46;1.70;;;1.30;;
30472;SDS011;17263;48.160;11.452;2024-02-26T11:37:14;8.30;;;1.70;;
30472;SDS011;17263;48.160;11.452;2024-02-26T11:39:42;7.17;;;1.50;;
30472;SDS011;17263;48.160;11.452;2024-02-26T11:42:13;4.47;;;1.50;;
30472;SDS011;17263;48.160;11.452;2024-02-26T11:44:40;1.70;;;1.23;;
30472;SDS011;17263;48.160;11.452;2024-02-26T11:47:13;6.23;;;1.43;;
30472;SDS011;17263;48.160;11.452;2024-02-26T11:49:47;3.03;;;1.50;;
30472;SDS011;17263;48.160;11.452;2024-02-26T11:52:14;2.23;;;1.23;;
30472;SDS011;17263;48.160;11.452;2024-02-26T11:54:44;4.07;;;1.60;;
30472;SDS011;17263;48.160;11.452;2024-02-26T12:05:11;6.83;;;1.40;;
30472;SDS011;17263;48.160;11.452;2024-02-26T12:07:48;2.23;;;1.40;;
30472;SDS011;17263;48.160;11.452;2024-02-26T12:10:22;3.73;;;1.20;;
30472;SDS011;17263;48.160;11.452;2024-02-26T12:13:33;2.07;;;1.63;;
30472;SDS011;17263;48.160;11.452;2024-02-26T12:15:45;3.67;;;1.60;;
30472;SDS011;17263;48.160;11.452;2024-02-26T12:18:20;2.80;;;1.37;;
30472;SDS011;17263;48.160;11.452;2024-02-26T12:20:46;1.53;;;1.07;;
30472;SDS011;17263;48.160;11.452;2024-02-26T12:23:23;1.97;;;1.20;;
30472;SDS011;17263;48.160;11.452;2024-02-26T12:25:49;3.87;;;1.50;;
30472;SDS011;17263;48.160;11.452;2024-02-26T12:28:15;2.83;;;1.17;;
30472;SDS011;17263;48.160;11.452;2024-02-26T12:30:41;3.17;;;1.30;;
30472;SDS011;17263;48.160;11.452;2024-02-26T12:33:07;2.60;;;1.10;;
30472;SDS011;17263;48.160;11.452;2024-02-26T12:35:34;3.20;;;1.33;;
30472;SDS011;17263;48.160;11.452;2024-02-26T12:38:00;2.10;;;1.27;;
30472;SDS011;17263;48.160;11.452;2024-02-26T12:40:29;2.60;;;1.37;;
30472;SDS011;17263;48.160;11.452;2024-02-26T12:42:55;2.57;;;1.30;;
30472;SDS011;17263;48.160;11.452;2024-02-26T12:45:22;2.97;;;1.30;;
30472;SDS011;17263;48.160;11.452;2024-02-26T12:47:48;1.30;;;1.00;;
30472;SDS011;17263;48.160;11.452;2024-02-26T12:50:17;2.10;;;1.20;;
30472;SDS011;17263;48.160;11.452;2024-02-26T12:52:44;1.70;;;1.20;;
30472;SDS011;17263;48.160;11.452;2024-02-26T12:55:13;2.97;;;1.20;;
30472;SDS011;17263;48.160;11.452;2024-02-26T12:57:48;3.43;;;1.30;;
30472;SDS011;17263;48.160;11.452;2024-02-26T13:00:18;3.13;;;1.13;;
30472;SDS011;17263;48.160;11.452;2024-02-26T13:02:47;4.63;;;1.50;;
30472;SDS011;17263;48.160;11.452;2024-02-26T13:05:15;2.17;;;1.30;;
30472;SDS011;17263;48.160;11.452;2024-02-26T13:07:42;1.60;;;1.50;;
30472;SDS011;17263;48.160;11.452;2024-02-26T13:10:16;3.33;;;1.60;;
30472;SDS011;17263;48.160;11.452;2024-02-26T13:12:44;2.03;;;1.10;;
30472;SDS011;17263;48.160;11.452;2024-02-26T13:15:14;3.20;;;1.40;;
30472;SDS011;17263;48.160;11.452;2024-02-26T13:17:44;2.83;;;1.80;;
30472;SDS011;17263;48.160;11.452;2024-02-26T13:20:11;7.63;;;1.60;;
30472;SDS011;17263;48.160;11.452;2024-02-26T13:22:37;2.13;;;1.70;;
30472;SDS011;17263;48.160;11.452;2024-02-26T13:25:04;2.27;;;1.60;;
30472;SDS011;17263;48.160;11.452;2024-02-26T13:27:32;8.30;;;1.67;;
30472;SDS011;17263;48.160;11.452;2024-02-26T13:30:11;3.63;;;1.87;;
30472;SDS011;17263;48.160;11.452;2024-02-26T13:32:38;2.47;;;1.40;;
30472;SDS011;17263;48.160;11.452;2024-02-26T13:35:06;1.90;;;1.60;;
30472;SDS011;17263;48.160;11.452;2024-02-26T13:37:33;4.57;;;1.60;;
30472;SDS011;17263;48.160;11.452;2024-02-26T13:40:07;2.47;;;1.53;;
30472;SDS011;17263;48.160;11.452;2024-02-26T13:42:34;2.47;;;1.47;;
30472;SDS011;17263;48.160;11.452;2024-02-26T13:45:01;2.37;;;1.53;;
30472;SDS011;17263;48.160;11.452;2024-02-26T13:47:28;1.63;;;1.37;;
30472;SDS011;17263;48.160;11.452;2024-02-26T13:49:54;2.27;;;1.40;;
30472;SDS011;17263;48.160;11.452;2024-02-26T13:52:20;2.93;;;1.63;;
30472;SDS011;17263;48.160;11.452;2024-02-26T13:54:46;2.70;;;1.30;;
30472;SDS011;17263;48.160;11.452;2024-02-26T13:57:12;2.53;;;1.37;;
30472;SDS011;17263;48.160;11.452;2024-02-26T13:59:38;1.63;;;1.27;;
30472;SDS011;17263;48.160;11.452;2024-02-26T14:02:10;1.50;;;1.40;;
30472;SDS011;17263;48.160;11.452;2024-02-26T14:04:37;3.10;;;1.60;;
30472;SDS011;17263;48.160;11.452;2024-02-26T14:07:04;3.30;;;1.10;;
30472;SDS011;17263;48.160;11.452;2024-02-26T14:09:30;3.20;;;1.30;;
30472;SDS011;17263;48.160;11.452;2024-02-26T14:11:57;1.00;;;1.00;;
30472;SDS011;17263;48.160;11.452;2024-02-26T14:14:26;2.10;;;1.30;;
30472;SDS011;17263;48.160;11.452;2024-02-26T14:16:53;1.43;;;1.30;;
30472;SDS011;17263;48.160;11.452;2024-02-26T14:19:19;2.23;;;1.40;;
30472;SDS011;17263;48.160;11.452;2024-02-26T14:21:45;2.70;;;1.80;;
30472;SDS011;17263;48.160;11.452;2024-02-26T14:24:11;1.90;;;1.30;;
30472;SDS011;17263;48.160;11.452;2024-02-26T14:26:37;2.30;;;1.47;;
30472;SDS011;17263;48.160;11.452;2024-02-26T14:29:03;2.57;;;1.70;;
30472;SDS011;17263;48.160;11.452;2024-02-26T14:31:29;3.07;;;2.07;;
30472;SDS011;17263;48.160;11.452;2024-02-26T14:33:55;2.40;;;1.90;;
30472;SDS011;17263;48.160;11.452;2024-02-26T14:36:22;1.60;;;1.50;;
30472;SDS011;17263;48.160;11.452;2024-02-26T14:38:48;1.83;;;1.20;;